sensor_id;sensor_type;location;lat;lon;timestamp;P1;durP1;ratioP1;P2;durP2;ratioP2
61015;SDS011;46902;52.920;6.536;2022-11-20T00:01:38;33.47;;;20.20;;
61015;SDS011;46902;52.920;6.536;2022-11-20T00:04:03;29.17;;;19.27;;
61015;SDS011;46902;52.920;6.536;2022-11-20T00:06:29;29.10;;;19.83;;
61015;SDS011;46902;52.920;6.536;2022-11-20T00:08:55;27.10;;;17.73;;
61015;SDS011;46902;52.920;6.536;2022-11-20T00:11:23;25.58;;;16.40;;
61015;SDS011;46902;52.920;6.536;2022-11-20T00:13:51;24.35;;;15.48;;
61015;SDS011;46902;52.920;6.536;2022-11-20T00:16:23;23.25;;;15.57;;
61015;SDS011;46902;52.920;6.536;2022-11-20T00:18:49;19.27;;;14.23;;
61015;SDS011;46902;52.920;6.536;2022-11-20T00:21:16;18.67;;;13.80;;
61015;SDS011;46902;52.920;6.536;2022-11-20T00:23:50;18.80;;;13.38;;
61015;SDS011;46902;52.920;6.536;2022-11-20T00:26:17;14.00;;;11.35;;
61015;SDS011;46902;52.920;6.536;2022-11-20T00:28:48;20.05;;;12.70;;
61015;SDS011;46902;52.920;6.536;2022-11-20T00:31:18;17.63;;;12.45;;
61015;SDS011;46902;52.920;6.536;2022-11-20T00:33:44;17.75;;;12.18;;
61015;SDS011;46902;52.920;6.536;2022-11-20T00:36:12;16.13;;;12.45;;
61015;SDS011;46902;52.920;6.536;2022-11-20T00:38:42;17.67;;;12.35;;
61015;SDS011;46902;52.920;6.536;2022-11-20T00:41:09;19.38;;;11.88;;
61015;SDS011;46902;52.920;6.536;2022-11-20T00:43:39;16.00;;;11.30;;
61015;SDS011;46902;52.920;6.536;2022-11-20T00:46:06;13.93;;;10.60;;
61015;SDS011;46902;52.920;6.536;2022-11-20T00:48:38;14.13;;;9.98;;
61015;SDS011;46902;52.920;6.536;2022-11-20T00:51:03;15.32;;;10.40;;
61015;SDS011;46902;52.920;6.536;2022-11-20T00:53:29;14.77;;;10.77;;
61015;SDS011;46902;52.920;6.536;2022-11-20T00:55:55;16.42;;;11.48;;
61015;SDS011;46902;52.920;6.536;2022-11-20T00:58:22;18.30;;;11.73;;
61015;SDS011;46902;52.920;6.536;2022-11-20T01:00:49;15.50;;;12.20;;
61015;SDS011;46902;52.920;6.536;2022-11-20T01:03:18;15.52;;;11.50;;
61015;SDS011;46902;52.920;6.536;2022-11-20T01:05:44;17.88;;;12.48;;
61015;SDS011;46902;52.920;6.536;2022-11-20T01:08:10;14.88;;;11.15;;
61015;SDS011;46902;52.920;6.536;2022-11-20T01:10:35;14.40;;;10.90;;
61015;SDS011;46902;52.920;6.536;2022-11-20T01:13:01;15.63;;;11.40;;
61015;SDS011;46902;52.920;6.536;2022-11-20T01:15:45;16.13;;;11.40;;
61015;SDS011;46902;52.920;6.536;2022-11-20T01:18:11;17.08;;;11.85;;
61015;SDS011;46902;52.920;6.536;2022-11-20T01:20:36;18.10;;;12.32;;
61015;SDS011;46902;52.920;6.536;2022-11-20T01:23:02;19.48;;;13.18;;
61015;SDS011;46902;52.920;6.536;2022-11-20T01:25:28;20.27;;;13.90;;
61015;SDS011;46902;52.920;6.536;2022-11-20T01:27:54;17.83;;;12.63;;
61015;SDS011;46902;52.920;6.536;2022-11-20T01:30:20;18.00;;;12.10;;
61015;SDS011;46902;52.920;6.536;2022-11-20T01:32:45;17.75;;;12.15;;
61015;SDS011;46902;52.920;6.536;2022-11-20T01:35:11;17.70;;;12.05;;
61015;SDS011;46902;52.920;6.536;2022-11-20T01:37:36;18.83;;;11.88;;
61015;SDS011;46902;52.920;6.536;2022-11-20T01:40:02;18.77;;;12.43;;
61015;SDS011;46902;52.920;6.536;2022-11-20T01:42:28;19.17;;;11.75;;
61015;SDS011;46902;52.920;6.536;2022-11-20T01:48:12;17.38;;;11.70;;
61015;SDS011;46902;52.920;6.536;2022-11-20T01:50:38;17.73;;;12.68;;
61015;SDS011;46902;52.920;6.536;2022-11-20T01:53:06;17.70;;;13.00;;
61015;SDS011;46902;52.920;6.536;2022-11-20T01:55:36;19.52;;;13.10;;
61015;SDS011;46902;52.920;6.536;2022-11-20T01:58:08;17.30;;;11.75;;
61015;SDS011;46902;52.920;6.536;2022-11-20T02:00:33;18.95;;;13.10;;
61015;SDS011;46902;52.920;6.536;2022-11-20T02:03:09;17.42;;;12.68;;
61015;SDS011;46902;52.920;6.536;2022-11-20T02:08:10;18.90;;;13.02;;
61015;SDS011;46902;52.920;6.536;2022-11-20T02:10:37;18.65;;;11.57;;
61015;SDS011;46902;52.920;6.536;2022-11-20T02:13:04;18.92;;;11.60;;
61015;SDS011;46902;52.920;6.536;2022-11-20T02:15:49;16.30;;;12.23;;
61015;SDS011;46902;52.920;6.536;2022-11-20T02:18:16;14.80;;;11.63;;
61015;SDS011;46902;52.920;6.536;2022-11-20T02:20:44;18.13;;;11.95;;
61015;SDS011;46902;52.920;6.536;2022-11-20T02:23:16;15.82;;;11.43;;
61015;SDS011;46902;52.920;6.536;2022-11-20T02:25:57;16.40;;;11.40;;
61015;SDS011;46902;52.920;6.536;2022-11-20T02:28:25;16.30;;;11.35;;
61015;SDS011;46902;52.920;6.536;2022-11-20T02:30:52;16.35;;;10.70;;
61015;SDS011;46902;52.920;6.536;2022-11-20T02:33:17;15.25;;;10.65;;
61015;SDS011;46902;52.920;6.536;2022-11-20T02:35:44;15.98;;;11.70;;
61015;SDS011;46902;52.920;6.536;2022-11-20T02:38:11;15.35;;;10.55;;
61015;SDS011;46902;52.920;6.536;2022-11-20T02:40:38;13.85;;;10.43;;
61015;SDS011;46902;52.920;6.536;2022-11-20T02:43:04;14.85;;;10.15;;
61015;SDS011;46902;52.920;6.536;2022-11-20T02:45:29;14.85;;;10.70;;
61015;SDS011;46902;52.920;6.536;2022-11-20T02:47:55;13.85;;;10.65;;
61015;SDS011;46902;52.920;6.536;2022-11-20T02:50:21;15.68;;;11.13;;
61015;SDS011;46902;52.920;6.536;2022-11-20T02:52:46;13.23;;;10.15;;
61015;SDS011;46902;52.920;6.536;2022-11-20T02:55:12;13.90;;;10.68;;
61015;SDS011;46902;52.920;6.536;2022-11-20T02:57:37;16.15;;;10.77;;
61015;SDS011;46902;52.920;6.536;2022-11-20T03:00:03;13.85;;;10.75;;
61015;SDS011;46902;52.920;6.536;2022-11-20T03:02:30;14.23;;;11.05;;
61015;SDS011;46902;52.920;6.536;2022-11-20T03:04:56;14.60;;;10.38;;
61015;SDS011;46902;52.920;6.536;2022-11-20T03:07:21;14.50;;;10.60;;
61015;SDS011;46902;52.920;6.536;2022-11-20T03:09:47;14.18;;;10.50;;
61015;SDS011;46902;52.920;6.536;2022-11-20T03:12:13;14.55;;;10.73;;
61015;SDS011;46902;52.920;6.536;2022-11-20T03:14:38;14.35;;;10.43;;
61015;SDS011;46902;52.920;6.536;2022-11-20T03:17:04;16.80;;;10.80;;
61015;SDS011;46902;52.920;6.536;2022-11-20T03:19:30;14.85;;;10.50;;
61015;SDS011;46902;52.920;6.536;2022-11-20T03:21:55;12.98;;;10.20;;
61015;SDS011;46902;52.920;6.536;2022-11-20T03:24:21;14.40;;;10.48;;
61015;SDS011;46902;52.920;6.536;2022-11-20T03:26:46;15.45;;;10.82;;
61015;SDS011;46902;52.920;6.536;2022-11-20T03:29:12;14.77;;;10.63;;
61015;SDS011;46902;52.920;6.536;2022-11-20T03:31:38;15.48;;;10.32;;
61015;SDS011;46902;52.920;6.536;2022-11-20T03:34:05;14.20;;;10.52;;
61015;SDS011;46902;52.920;6.536;2022-11-20T03:36:31;13.75;;;9.90;;
61015;SDS011;46902;52.920;6.536;2022-11-20T03:38:57;14.50;;;11.00;;
61015;SDS011;46902;52.920;6.536;2022-11-20T03:41:24;13.55;;;10.38;;
61015;SDS011;46902;52.920;6.536;2022-11-20T03:43:52;15.48;;;9.93;;
61015;SDS011;46902;52.920;6.536;2022-11-20T03:46:20;13.88;;;10.45;;
61015;SDS011;46902;52.920;6.536;2022-11-20T03:48:46;12.77;;;10.32;;
61015;SDS011;46902;52.920;6.536;2022-11-20T03:51:13;15.18;;;11.02;;
61015;SDS011;46902;52.920;6.536;2022-11-20T03:53:41;14.82;;;10.93;;
61015;SDS011;46902;52.920;6.536;2022-11-20T03:56:09;14.57;;;11.20;;
61015;SDS011;46902;52.920;6.536;2022-11-20T03:58:36;13.52;;;10.15;;
61015;SDS011;46902;52.920;6.536;2022-11-20T04:01:06;12.02;;;9.88;;
61015;SDS011;46902;52.920;6.536;2022-11-20T04:03:32;14.30;;;10.68;;
61015;SDS011;46902;52.920;6.536;2022-11-20T04:06:01;14.60;;;10.07;;
61015;SDS011;46902;52.920;6.536;2022-11-20T04:08:29;14.02;;;10.45;;
61015;SDS011;46902;52.920;6.536;2022-11-20T04:10:55;13.35;;;10.45;;
61015;SDS011;46902;52.920;6.536;2022-11-20T04:13:20;13.98;;;10.00;;
61015;SDS011;46902;52.920;6.536;2022-11-20T04:15:46;13.18;;;10.07;;
61015;SDS011;46902;52.920;6.536;2022-11-20T04:18:11;13.95;;;9.85;;
61015;SDS011;46902;52.920;6.536;2022-11-20T04:20:37;12.50;;;10.45;;
61015;SDS011;46902;52.920;6.536;2022-11-20T04:23:03;16.08;;;11.27;;
61015;SDS011;46902;52.920;6.536;2022-11-20T04:25:28;14.40;;;10.13;;
61015;SDS011;46902;52.920;6.536;2022-11-20T04:27:54;13.38;;;10.13;;
61015;SDS011;46902;52.920;6.536;2022-11-20T04:30:19;15.38;;;10.48;;
61015;SDS011;46902;52.920;6.536;2022-11-20T04:32:45;14.13;;;10.20;;
61015;SDS011;46902;52.920;6.536;2022-11-20T04:35:10;14.15;;;10.63;;
61015;SDS011;46902;52.920;6.536;2022-11-20T04:37:36;14.60;;;10.90;;
61015;SDS011;46902;52.920;6.536;2022-11-20T04:40:02;15.25;;;10.45;;
61015;SDS011;46902;52.920;6.536;2022-11-20T04:42:27;13.75;;;10.35;;
61015;SDS011;46902;52.920;6.536;2022-11-20T04:44:53;13.20;;;10.30;;
61015;SDS011;46902;52.920;6.536;2022-11-20T04:47:18;14.77;;;10.98;;
61015;SDS011;46902;52.920;6.536;2022-11-20T04:49:44;14.32;;;10.65;;
61015;SDS011;46902;52.920;6.536;2022-11-20T04:52:10;13.77;;;10.63;;
61015;SDS011;46902;52.920;6.536;2022-11-20T04:54:35;13.05;;;10.45;;
61015;SDS011;46902;52.920;6.536;2022-11-20T04:57:01;13.30;;;10.27;;
61015;SDS011;46902;52.920;6.536;2022-11-20T04:59:26;13.15;;;9.73;;
61015;SDS011;46902;52.920;6.536;2022-11-20T05:01:52;13.20;;;10.43;;
61015;SDS011;46902;52.920;6.536;2022-11-20T05:04:17;14.35;;;10.75;;
61015;SDS011;46902;52.920;6.536;2022-11-20T05:06:43;12.73;;;10.27;;
61015;SDS011;46902;52.920;6.536;2022-11-20T05:09:10;14.77;;;10.15;;
61015;SDS011;46902;52.920;6.536;2022-11-20T05:11:36;13.93;;;10.32;;
61015;SDS011;46902;52.920;6.536;2022-11-20T05:14:02;13.98;;;10.07;;
61015;SDS011;46902;52.920;6.536;2022-11-20T05:16:27;15.48;;;11.07;;
61015;SDS011;46902;52.920;6.536;2022-11-20T05:18:53;13.48;;;10.40;;
61015;SDS011;46902;52.920;6.536;2022-11-20T05:21:19;12.90;;;9.93;;
61015;SDS011;46902;52.920;6.536;2022-11-20T05:23:45;13.55;;;9.73;;
61015;SDS011;46902;52.920;6.536;2022-11-20T05:26:13;13.55;;;10.07;;
61015;SDS011;46902;52.920;6.536;2022-11-20T05:28:44;13.32;;;9.75;;
61015;SDS011;46902;52.920;6.536;2022-11-20T05:31:13;14.80;;;10.80;;
61015;SDS011;46902;52.920;6.536;2022-11-20T05:33:41;14.30;;;10.90;;
61015;SDS011;46902;52.920;6.536;2022-11-20T05:36:08;14.95;;;10.32;;
61015;SDS011;46902;52.920;6.536;2022-11-20T05:38:34;14.52;;;10.05;;
61015;SDS011;46902;52.920;6.536;2022-11-20T05:41:07;12.40;;;9.48;;
61015;SDS011;46902;52.920;6.536;2022-11-20T05:43:35;13.75;;;10.60;;
61015;SDS011;46902;52.920;6.536;2022-11-20T05:46:02;12.85;;;9.73;;
61015;SDS011;46902;52.920;6.536;2022-11-20T05:48:28;14.32;;;10.13;;
61015;SDS011;46902;52.920;6.536;2022-11-20T05:50:56;13.30;;;9.88;;
61015;SDS011;46902;52.920;6.536;2022-11-20T05:53:23;16.27;;;9.80;;
61015;SDS011;46902;52.920;6.536;2022-11-20T05:55:55;15.07;;;10.18;;
61015;SDS011;46902;52.920;6.536;2022-11-20T05:58:24;14.75;;;9.93;;
61015;SDS011;46902;52.920;6.536;2022-11-20T06:00:49;13.05;;;10.05;;
61015;SDS011;46902;52.920;6.536;2022-11-20T06:03:15;11.68;;;9.30;;
61015;SDS011;46902;52.920;6.536;2022-11-20T06:05:40;14.35;;;10.20;;
61015;SDS011;46902;52.920;6.536;2022-11-20T06:08:06;13.85;;;10.40;;
61015;SDS011;46902;52.920;6.536;2022-11-20T06:10:31;11.60;;;9.73;;
61015;SDS011;46902;52.920;6.536;2022-11-20T06:12:57;15.02;;;10.63;;
61015;SDS011;46902;52.920;6.536;2022-11-20T06:15:23;15.73;;;10.52;;
61015;SDS011;46902;52.920;6.536;2022-11-20T06:17:51;12.15;;;9.75;;
61015;SDS011;46902;52.920;6.536;2022-11-20T06:20:18;13.23;;;10.48;;
61015;SDS011;46902;52.920;6.536;2022-11-20T06:22:44;13.85;;;10.32;;
61015;SDS011;46902;52.920;6.536;2022-11-20T06:25:09;14.35;;;10.85;;
61015;SDS011;46902;52.920;6.536;2022-11-20T06:27:35;14.80;;;10.95;;
61015;SDS011;46902;52.920;6.536;2022-11-20T06:30:00;14.88;;;9.98;;
61015;SDS011;46902;52.920;6.536;2022-11-20T06:32:26;13.57;;;10.45;;
61015;SDS011;46902;52.920;6.536;2022-11-20T06:34:51;13.77;;;10.40;;
61015;SDS011;46902;52.920;6.536;2022-11-20T06:37:17;13.27;;;9.85;;
61015;SDS011;46902;52.920;6.536;2022-11-20T06:39:43;13.15;;;9.95;;
61015;SDS011;46902;52.920;6.536;2022-11-20T06:42:08;13.45;;;10.35;;
61015;SDS011;46902;52.920;6.536;2022-11-20T06:44:34;13.85;;;9.60;;
61015;SDS011;46902;52.920;6.536;2022-11-20T06:46:59;12.90;;;9.52;;
61015;SDS011;46902;52.920;6.536;2022-11-20T06:49:26;12.60;;;9.48;;
61015;SDS011;46902;52.920;6.536;2022-11-20T06:51:51;14.05;;;9.95;;
61015;SDS011;46902;52.920;6.536;2022-11-20T06:54:17;13.75;;;10.20;;
61015;SDS011;46902;52.920;6.536;2022-11-20T06:56:45;12.82;;;9.30;;
61015;SDS011;46902;52.920;6.536;2022-11-20T06:59:12;13.30;;;9.93;;
61015;SDS011;46902;52.920;6.536;2022-11-20T07:01:38;17.00;;;9.70;;
61015;SDS011;46902;52.920;6.536;2022-11-20T07:04:04;13.60;;;8.95;;
61015;SDS011;46902;52.920;6.536;2022-11-20T07:06:29;13.85;;;9.90;;
61015;SDS011;46902;52.920;6.536;2022-11-20T07:08:55;12.40;;;9.60;;
61015;SDS011;46902;52.920;6.536;2022-11-20T07:11:21;13.35;;;9.77;;
61015;SDS011;46902;52.920;6.536;2022-11-20T07:13:46;12.48;;;9.05;;
61015;SDS011;46902;52.920;6.536;2022-11-20T07:16:12;12.55;;;9.63;;
61015;SDS011;46902;52.920;6.536;2022-11-20T07:18:37;15.07;;;9.93;;
61015;SDS011;46902;52.920;6.536;2022-11-20T07:21:07;13.88;;;9.43;;
61015;SDS011;46902;52.920;6.536;2022-11-20T07:23:34;12.38;;;9.57;;
61015;SDS011;46902;52.920;6.536;2022-11-20T07:26:06;11.10;;;9.05;;
61015;SDS011;46902;52.920;6.536;2022-11-20T07:28:34;12.80;;;9.38;;
61015;SDS011;46902;52.920;6.536;2022-11-20T07:31:00;15.55;;;9.88;;
61015;SDS011;46902;52.920;6.536;2022-11-20T07:33:25;12.82;;;9.90;;
61015;SDS011;46902;52.920;6.536;2022-11-20T07:35:51;12.70;;;9.38;;
61015;SDS011;46902;52.920;6.536;2022-11-20T07:38:17;11.75;;;9.07;;
61015;SDS011;46902;52.920;6.536;2022-11-20T07:40:42;12.98;;;9.60;;
61015;SDS011;46902;52.920;6.536;2022-11-20T07:43:08;12.73;;;9.45;;
61015;SDS011;46902;52.920;6.536;2022-11-20T07:45:33;11.40;;;9.00;;
61015;SDS011;46902;52.920;6.536;2022-11-20T07:47:59;10.88;;;8.43;;
61015;SDS011;46902;52.920;6.536;2022-11-20T07:50:25;11.68;;;8.57;;
61015;SDS011;46902;52.920;6.536;2022-11-20T07:52:50;11.70;;;8.77;;
61015;SDS011;46902;52.920;6.536;2022-11-20T07:55:17;13.30;;;8.68;;
61015;SDS011;46902;52.920;6.536;2022-11-20T07:57:42;12.38;;;9.30;;
61015;SDS011;46902;52.920;6.536;2022-11-20T08:00:08;11.70;;;9.45;;
61015;SDS011;46902;52.920;6.536;2022-11-20T08:02:39;11.77;;;9.13;;
61015;SDS011;46902;52.920;6.536;2022-11-20T08:05:06;12.52;;;9.05;;
61015;SDS011;46902;52.920;6.536;2022-11-20T08:07:39;12.68;;;8.77;;
61015;SDS011;46902;52.920;6.536;2022-11-20T08:10:07;12.90;;;9.05;;
61015;SDS011;46902;52.920;6.536;2022-11-20T08:12:34;11.00;;;8.27;;
61015;SDS011;46902;52.920;6.536;2022-11-20T08:15:18;12.68;;;8.57;;
61015;SDS011;46902;52.920;6.536;2022-11-20T08:17:43;11.13;;;8.32;;
61015;SDS011;46902;52.920;6.536;2022-11-20T08:20:09;10.25;;;8.60;;
61015;SDS011;46902;52.920;6.536;2022-11-20T08:22:35;12.65;;;9.38;;
61015;SDS011;46902;52.920;6.536;2022-11-20T08:25:00;14.05;;;8.55;;
61015;SDS011;46902;52.920;6.536;2022-11-20T08:27:26;13.40;;;8.63;;
61015;SDS011;46902;52.920;6.536;2022-11-20T08:29:52;11.88;;;8.60;;
61015;SDS011;46902;52.920;6.536;2022-11-20T08:32:18;12.15;;;8.60;;
61015;SDS011;46902;52.920;6.536;2022-11-20T08:34:43;11.23;;;8.48;;
61015;SDS011;46902;52.920;6.536;2022-11-20T08:37:09;16.65;;;8.05;;
61015;SDS011;46902;52.920;6.536;2022-11-20T08:39:34;15.68;;;8.45;;
61015;SDS011;46902;52.920;6.536;2022-11-20T08:42:00;10.43;;;8.40;;
61015;SDS011;46902;52.920;6.536;2022-11-20T08:44:25;11.15;;;8.88;;
61015;SDS011;46902;52.920;6.536;2022-11-20T08:46:51;11.98;;;8.52;;
61015;SDS011;46902;52.920;6.536;2022-11-20T08:49:16;13.35;;;8.63;;
61015;SDS011;46902;52.920;6.536;2022-11-20T08:51:43;12.43;;;8.27;;
61015;SDS011;46902;52.920;6.536;2022-11-20T08:54:08;12.35;;;8.48;;
61015;SDS011;46902;52.920;6.536;2022-11-20T08:56:34;9.98;;;8.07;;
61015;SDS011;46902;52.920;6.536;2022-11-20T08:59:00;10.63;;;8.02;;
61015;SDS011;46902;52.920;6.536;2022-11-20T09:01:26;9.85;;;8.07;;
61015;SDS011;46902;52.920;6.536;2022-11-20T09:03:54;13.90;;;8.25;;
61015;SDS011;46902;52.920;6.536;2022-11-20T09:06:21;12.18;;;7.60;;
61015;SDS011;46902;52.920;6.536;2022-11-20T09:08:47;9.45;;;7.72;;
61015;SDS011;46902;52.920;6.536;2022-11-20T09:11:12;10.55;;;8.05;;
61015;SDS011;46902;52.920;6.536;2022-11-20T09:13:38;11.40;;;8.57;;
61015;SDS011;46902;52.920;6.536;2022-11-20T09:16:07;11.07;;;8.25;;
61015;SDS011;46902;52.920;6.536;2022-11-20T09:18:34;12.02;;;8.48;;
61015;SDS011;46902;52.920;6.536;2022-11-20T09:21:10;10.68;;;8.25;;
61015;SDS011;46902;52.920;6.536;2022-11-20T09:23:38;10.85;;;8.27;;
61015;SDS011;46902;52.920;6.536;2022-11-20T09:26:09;10.75;;;8.65;;
61015;SDS011;46902;52.920;6.536;2022-11-20T09:28:36;10.65;;;7.57;;
61015;SDS011;46902;52.920;6.536;2022-11-20T09:31:05;10.65;;;7.53;;
61015;SDS011;46902;52.920;6.536;2022-11-20T09:33:32;11.98;;;7.70;;
61015;SDS011;46902;52.920;6.536;2022-11-20T09:35:58;11.85;;;7.70;;
61015;SDS011;46902;52.920;6.536;2022-11-20T09:38:23;10.35;;;7.47;;
61015;SDS011;46902;52.920;6.536;2022-11-20T09:43:32;15.02;;;8.20;;
61015;SDS011;46902;52.920;6.536;2022-11-20T09:46:23;10.35;;;8.02;;
61015;SDS011;46902;52.920;6.536;2022-11-20T09:52:07;10.80;;;7.47;;
61015;SDS011;46902;52.920;6.536;2022-11-20T09:54:43;12.77;;;7.90;;
61015;SDS011;46902;52.920;6.536;2022-11-20T10:00:18;11.20;;;8.30;;
61015;SDS011;46902;52.920;6.536;2022-11-20T10:02:28;12.07;;;8.23;;
61015;SDS011;46902;52.920;6.536;2022-11-20T10:07:44;11.82;;;7.30;;
61015;SDS011;46902;52.920;6.536;2022-11-20T10:10:35;13.77;;;8.68;;
61015;SDS011;46902;52.920;6.536;2022-11-20T10:23:52;14.38;;;8.88;;
61015;SDS011;46902;52.920;6.536;2022-11-20T10:29:40;10.52;;;7.68;;
61015;SDS011;46902;52.920;6.536;2022-11-20T10:32:11;9.65;;;7.13;;
61015;SDS011;46902;52.920;6.536;2022-11-20T10:34:45;12.93;;;7.75;;
61015;SDS011;46902;52.920;6.536;2022-11-20T10:37:19;12.18;;;8.07;;
61015;SDS011;46902;52.920;6.536;2022-11-20T10:45:36;8.43;;;6.93;;
61015;SDS011;46902;52.920;6.536;2022-11-20T10:48:23;10.05;;;7.10;;
61015;SDS011;46902;52.920;6.536;2022-11-20T10:50:55;10.18;;;7.22;;
61015;SDS011;46902;52.920;6.536;2022-11-20T11:01:18;10.93;;;7.65;;
61015;SDS011;46902;52.920;6.536;2022-11-20T11:03:48;9.68;;;7.03;;
61015;SDS011;46902;52.920;6.536;2022-11-20T11:06:37;10.55;;;7.28;;
61015;SDS011;46902;52.920;6.536;2022-11-20T11:09:11;10.02;;;6.95;;
61015;SDS011;46902;52.920;6.536;2022-11-20T11:11:42;8.93;;;6.80;;
61015;SDS011;46902;52.920;6.536;2022-11-20T11:14:11;9.45;;;7.07;;
61015;SDS011;46902;52.920;6.536;2022-11-20T11:16:55;9.00;;;6.68;;
61015;SDS011;46902;52.920;6.536;2022-11-20T11:19:22;7.68;;;5.22;;
61015;SDS011;46902;52.920;6.536;2022-11-20T11:21:52;7.65;;;5.68;;
61015;SDS011;46902;52.920;6.536;2022-11-20T11:26:53;9.02;;;6.03;;
61015;SDS011;46902;52.920;6.536;2022-11-20T11:29:25;7.72;;;5.97;;
61015;SDS011;46902;52.920;6.536;2022-11-20T11:32:07;8.63;;;5.97;;
61015;SDS011;46902;52.920;6.536;2022-11-20T11:35:03;8.48;;;6.03;;
61015;SDS011;46902;52.920;6.536;2022-11-20T11:37:34;7.80;;;5.60;;
61015;SDS011;46902;52.920;6.536;2022-11-20T11:40:05;7.97;;;5.93;;
61015;SDS011;46902;52.920;6.536;2022-11-20T11:45:06;7.88;;;5.65;;
61015;SDS011;46902;52.920;6.536;2022-11-20T11:47:36;7.95;;;6.32;;
61015;SDS011;46902;52.920;6.536;2022-11-20T11:55:44;10.52;;;6.63;;
61015;SDS011;46902;52.920;6.536;2022-11-20T11:58:20;6.90;;;5.60;;
61015;SDS011;46902;52.920;6.536;2022-11-20T12:03:51;9.10;;;5.57;;
61015;SDS011;46902;52.920;6.536;2022-11-20T12:06:27;7.10;;;5.75;;
61015;SDS011;46902;52.920;6.536;2022-11-20T12:08:58;7.07;;;5.13;;
61015;SDS011;46902;52.920;6.536;2022-11-20T12:14:16;7.75;;;5.88;;
61015;SDS011;46902;52.920;6.536;2022-11-20T12:16:49;8.98;;;6.43;;
61015;SDS011;46902;52.920;6.536;2022-11-20T12:19:17;7.85;;;5.90;;
61015;SDS011;46902;52.920;6.536;2022-11-20T12:21:58;7.63;;;5.43;;
61015;SDS011;46902;52.920;6.536;2022-11-20T12:27:36;7.63;;;5.40;;
61015;SDS011;46902;52.920;6.536;2022-11-20T12:30:14;7.18;;;4.95;;
61015;SDS011;46902;52.920;6.536;2022-11-20T12:40:49;6.53;;;4.72;;
61015;SDS011;46902;52.920;6.536;2022-11-20T12:43:28;6.30;;;4.97;;
61015;SDS011;46902;52.920;6.536;2022-11-20T12:57:29;17.10;;;5.47;;
61015;SDS011;46902;52.920;6.536;2022-11-20T13:00:19;7.60;;;5.38;;
61015;SDS011;46902;52.920;6.536;2022-11-20T13:07:53;8.73;;;5.70;;
61015;SDS011;46902;52.920;6.536;2022-11-20T13:10:25;7.32;;;5.60;;
61015;SDS011;46902;52.920;6.536;2022-11-20T13:12:55;7.70;;;6.07;;
61015;SDS011;46902;52.920;6.536;2022-11-20T13:15:33;8.48;;;5.47;;
61015;SDS011;46902;52.920;6.536;2022-11-20T13:18:19;8.57;;;6.30;;
61015;SDS011;46902;52.920;6.536;2022-11-20T13:20:45;8.55;;;6.45;;
61015;SDS011;46902;52.920;6.536;2022-11-20T13:23:22;8.05;;;6.50;;
61015;SDS011;46902;52.920;6.536;2022-11-20T13:26:02;7.68;;;6.57;;
61015;SDS011;46902;52.920;6.536;2022-11-20T13:28:40;8.65;;;6.90;;
61015;SDS011;46902;52.920;6.536;2022-11-20T13:31:09;11.70;;;6.82;;
61015;SDS011;46902;52.920;6.536;2022-11-20T13:33:49;11.45;;;7.28;;
61015;SDS011;46902;52.920;6.536;2022-11-20T13:36:21;11.02;;;6.93;;
61015;SDS011;46902;52.920;6.536;2022-11-20T13:38:47;9.45;;;6.97;;
61015;SDS011;46902;52.920;6.536;2022-11-20T13:41:24;8.13;;;6.57;;
61015;SDS011;46902;52.920;6.536;2022-11-20T13:44:23;7.88;;;6.53;;
61015;SDS011;46902;52.920;6.536;2022-11-20T13:47:03;11.85;;;7.55;;
61015;SDS011;46902;52.920;6.536;2022-11-20T13:49:42;10.35;;;7.00;;
61015;SDS011;46902;52.920;6.536;2022-11-20T13:55:16;10.13;;;7.57;;
61015;SDS011;46902;52.920;6.536;2022-11-20T13:58:04;8.25;;;7.05;;
61015;SDS011;46902;52.920;6.536;2022-11-20T14:01:09;10.52;;;7.90;;
61015;SDS011;46902;52.920;6.536;2022-11-20T14:03:40;10.48;;;7.55;;
61015;SDS011;46902;52.920;6.536;2022-11-20T14:06:10;10.05;;;7.72;;
61015;SDS011;46902;52.920;6.536;2022-11-20T14:08:40;9.10;;;7.55;;
61015;SDS011;46902;52.920;6.536;2022-11-20T14:11:17;10.98;;;7.65;;
61015;SDS011;46902;52.920;6.536;2022-11-20T14:13:57;10.75;;;7.57;;
61015;SDS011;46902;52.920;6.536;2022-11-20T14:16:40;10.30;;;7.20;;
61015;SDS011;46902;52.920;6.536;2022-11-20T14:19:48;9.90;;;7.68;;
61015;SDS011;46902;52.920;6.536;2022-11-20T14:22:09;9.68;;;7.28;;
61015;SDS011;46902;52.920;6.536;2022-11-20T14:24:42;9.55;;;7.10;;
61015;SDS011;46902;52.920;6.536;2022-11-20T14:27:12;9.63;;;6.88;;
61015;SDS011;46902;52.920;6.536;2022-11-20T14:29:39;9.02;;;7.05;;
61015;SDS011;46902;52.920;6.536;2022-11-20T14:32:08;10.57;;;7.13;;
61015;SDS011;46902;52.920;6.536;2022-11-20T14:34:37;9.85;;;7.20;;
61015;SDS011;46902;52.920;6.536;2022-11-20T14:37:06;10.27;;;7.25;;
61015;SDS011;46902;52.920;6.536;2022-11-20T14:39:39;10.88;;;8.30;;
61015;SDS011;46902;52.920;6.536;2022-11-20T14:42:17;12.07;;;7.85;;
61015;SDS011;46902;52.920;6.536;2022-11-20T14:44:45;11.73;;;8.90;;
61015;SDS011;46902;52.920;6.536;2022-11-20T14:47:13;12.57;;;8.18;;
61015;SDS011;46902;52.920;6.536;2022-11-20T14:49:42;14.07;;;9.18;;
61015;SDS011;46902;52.920;6.536;2022-11-20T14:54:48;12.82;;;8.10;;
61015;SDS011;46902;52.920;6.536;2022-11-20T14:57:22;10.98;;;8.27;;
61015;SDS011;46902;52.920;6.536;2022-11-20T14:59:48;13.88;;;9.23;;
61015;SDS011;46902;52.920;6.536;2022-11-20T15:02:14;11.98;;;9.15;;
61015;SDS011;46902;52.920;6.536;2022-11-20T15:04:44;13.05;;;8.98;;
61015;SDS011;46902;52.920;6.536;2022-11-20T15:10:37;12.18;;;9.38;;
61015;SDS011;46902;52.920;6.536;2022-11-20T15:13:10;13.02;;;9.35;;
61015;SDS011;46902;52.920;6.536;2022-11-20T15:15:54;13.05;;;9.18;;
61015;SDS011;46902;52.920;6.536;2022-11-20T15:21:05;11.23;;;8.88;;
61015;SDS011;46902;52.920;6.536;2022-11-20T15:23:38;10.93;;;8.82;;
61015;SDS011;46902;52.920;6.536;2022-11-20T15:26:04;12.35;;;9.35;;
61015;SDS011;46902;52.920;6.536;2022-11-20T15:28:32;12.25;;;9.45;;
61015;SDS011;46902;52.920;6.536;2022-11-20T15:31:00;13.45;;;9.27;;
61015;SDS011;46902;52.920;6.536;2022-11-20T15:33:28;13.70;;;9.73;;
61015;SDS011;46902;52.920;6.536;2022-11-20T15:35:53;12.82;;;9.70;;
61015;SDS011;46902;52.920;6.536;2022-11-20T15:38:19;12.30;;;9.20;;
61015;SDS011;46902;52.920;6.536;2022-11-20T15:40:44;13.48;;;9.25;;
61015;SDS011;46902;52.920;6.536;2022-11-20T15:43:10;12.13;;;9.73;;
61015;SDS011;46902;52.920;6.536;2022-11-20T15:48:04;11.95;;;9.32;;
61015;SDS011;46902;52.920;6.536;2022-11-20T15:50:36;15.23;;;11.30;;
61015;SDS011;46902;52.920;6.536;2022-11-20T15:53:03;13.60;;;10.82;;
61015;SDS011;46902;52.920;6.536;2022-11-20T15:55:29;14.75;;;10.88;;
61015;SDS011;46902;52.920;6.536;2022-11-20T15:57:55;15.52;;;10.90;;
61015;SDS011;46902;52.920;6.536;2022-11-20T16:00:21;12.77;;;10.40;;
61015;SDS011;46902;52.920;6.536;2022-11-20T16:02:47;15.55;;;11.20;;
61015;SDS011;46902;52.920;6.536;2022-11-20T16:05:12;12.98;;;10.13;;
61015;SDS011;46902;52.920;6.536;2022-11-20T16:07:39;14.38;;;10.60;;
61015;SDS011;46902;52.920;6.536;2022-11-20T16:10:05;15.68;;;9.93;;
61015;SDS011;46902;52.920;6.536;2022-11-20T16:12:31;16.27;;;11.05;;
61015;SDS011;46902;52.920;6.536;2022-11-20T16:15:15;15.20;;;11.20;;
61015;SDS011;46902;52.920;6.536;2022-11-20T16:17:59;12.95;;;10.35;;
61015;SDS011;46902;52.920;6.536;2022-11-20T16:20:25;14.07;;;10.80;;
61015;SDS011;46902;52.920;6.536;2022-11-20T16:22:50;19.02;;;12.38;;
61015;SDS011;46902;52.920;6.536;2022-11-20T16:25:16;15.52;;;11.43;;